Time;durP1;ratioP1;P1;durP2;ratioP2;P2;SDS_P1;SDS_P2;PMS_P1;PMS_P2;Temp;Humidity;BMP_temperature;BMP_pressure;BME280_temperature;BME280_humidity;BME280_pressure;Samples;Min_cycle;Max_cycle;Signal;HPM_P1;HPM_P2
2023/01/12 00:01:27;;;;;;;28.00;3.83;;;7.80;99.60;;;;;;5107133;28;20481;-91
2023/01/12 00:03:54;;;;;;;31.20;4.20;;;7.80;99.50;;;;;;5089946;28;20427;-91
2023/01/12 00:06:20;;;;;;;31.15;3.90;;;7.80;99.50;;;;;;5090205;28;20402;-92
2023/01/12 00:08:47;;;;;;;25.90;3.40;;;7.90;99.50;;;;;;5094762;27;20398;-90
2023/01/12 00:11:13;;;;;;;26.25;3.65;;;8.20;99.40;;;;;;5110587;27;20438;-91
2023/01/12 00:13:38;;;;;;;25.00;3.78;;;8.10;99.20;;;;;;5094506;27;20958;-89
2023/01/12 00:18:49;;;;;;;26.17;2.60;;;7.80;99.10;;;;;;5111495;27;20391;-90
2023/01/12 00:21:16;;;;;;;15.95;2.00;;;7.80;99.10;;;;;;5111302;27;20417;-91
2023/01/12 00:23:43;;;;;;;24.02;2.72;;;7.70;98.80;;;;;;5093728;27;20391;-92
2023/01/12 00:26:09;;;;;;;30.95;3.40;;;7.60;99.00;;;;;;5111927;27;20762;-91
2023/01/12 00:28:36;;;;;;;28.75;3.20;;;7.60;99.20;;;;;;5110405;27;20517;-91
2023/01/12 00:31:06;;;;;;;31.85;3.67;;;7.70;99.60;;;;;;5094461;27;20386;-92
2023/01/12 00:33:34;;;;;;;38.47;4.47;;;7.70;99.70;;;;;;5093007;27;20522;-91
2023/01/12 00:36:09;;;;;;;27.20;3.40;;;7.50;99.80;;;;;;5111192;27;20391;-91
2023/01/12 00:38:35;;;;;;;27.23;3.10;;;7.70;99.90;;;;;;5094153;27;20863;-92
2023/01/12 00:41:05;;;;;;;30.77;4.18;;;7.70;99.60;;;;;;5110023;27;20406;-90
2023/01/12 00:46:15;;;;;;;26.42;3.33;;;7.60;99.30;;;;;;5106551;28;20404;-90
2023/01/12 00:48:43;;;;;;;28.43;3.70;;;7.60;99.40;;;;;;5089875;28;20890;-92
2023/01/12 00:51:08;;;;;;;26.57;4.10;;;7.60;99.40;;;;;;5089846;28;20392;-91
2023/01/12 00:53:34;;;;;;;27.63;3.47;;;7.70;99.40;;;;;;5089963;28;20428;-92
2023/01/12 00:56:04;;;;;;;29.10;3.53;;;7.70;99.30;;;;;;5107399;28;20416;-90
2023/01/12 00:58:29;;;;;;;26.90;3.85;;;7.70;99.20;;;;;;5089871;28;20446;-91
2023/01/12 01:01:06;;;;;;;21.20;2.45;;;7.70;99.10;;;;;;5107255;28;20408;-91
2023/01/12 01:03:32;;;;;;;25.45;3.17;;;7.80;99.10;;;;;;5088919;28;20396;-91
2023/01/12 01:06:06;;;;;;;27.08;3.40;;;7.80;99.00;;;;;;5107292;28;20440;-90
2023/01/12 01:08:35;;;;;;;24.33;3.30;;;7.90;99.10;;;;;;5089566;28;20899;-90
2023/01/12 01:11:06;;;;;;;22.13;3.13;;;7.90;99.10;;;;;;5107245;28;20403;-91
2023/01/12 01:13:32;;;;;;;22.83;3.08;;;7.90;99.10;;;;;;5089967;28;20488;-90
2023/01/12 01:16:03;;;;;;;23.90;3.13;;;7.90;99.50;;;;;;5088761;28;20483;-90
2023/01/12 01:18:30;;;;;;;25.05;3.10;;;7.90;99.20;;;;;;5089125;28;20400;-91
2023/01/12 01:20:56;;;;;;;27.45;4.30;;;7.90;99.10;;;;;;5089165;28;20396;-91
2023/01/12 01:23:23;;;;;;;23.23;2.80;;;7.90;99.10;;;;;;5089983;28;20397;-90
2023/01/12 01:25:49;;;;;;;24.92;3.10;;;7.90;99.00;;;;;;5106066;28;20399;-91
2023/01/12 01:28:16;;;;;;;25.00;3.60;;;7.90;99.00;;;;;;5089208;28;20891;-91
2023/01/12 01:30:42;;;;;;;20.23;3.15;;;7.80;99.00;;;;;;5089211;28;20445;-91
2023/01/12 01:33:08;;;;;;;25.25;3.28;;;7.80;99.00;;;;;;5088628;28;20416;-90
2023/01/12 01:35:35;;;;;;;24.17;3.33;;;7.80;99.00;;;;;;5089827;28;20427;-93
2023/01/12 01:38:01;;;;;;;26.20;3.72;;;7.90;99.00;;;;;;5088712;28;20404;-90
2023/01/12 01:40:27;;;;;;;27.48;3.70;;;7.90;99.00;;;;;;5106101;28;20396;-90
2023/01/12 01:42:52;;;;;;;28.40;4.03;;;7.90;99.00;;;;;;5088140;28;20907;-90
2023/01/12 01:45:18;;;;;;;21.10;3.30;;;7.90;98.90;;;;;;5106017;28;20919;-91
2023/01/12 01:47:57;;;;;;;28.70;3.67;;;7.90;98.90;;;;;;5088564;28;20405;-89
2023/01/12 01:50:31;;;;;;;26.23;3.28;;;7.90;98.90;;;;;;5088500;28;20934;-90
2023/01/12 01:53:13;;;;;;;25.15;3.58;;;7.90;98.90;;;;;;5089052;28;20428;-89
2023/01/12 01:55:47;;;;;;;23.15;3.60;;;8.00;98.90;;;;;;5083200;28;20470;-91
2023/01/12 01:58:24;;;;;;;25.85;3.55;;;8.10;98.90;;;;;;5088805;28;20891;-89
2023/01/12 02:00:51;;;;;;;25.90;3.45;;;8.10;98.80;;;;;;5088996;28;20521;-88
2023/01/12 02:03:17;;;;;;;24.48;3.20;;;8.10;99.00;;;;;;5088518;28;20404;-90
2023/01/12 02:05:47;;;;;;;26.33;3.58;;;8.10;99.00;;;;;;5089500;28;20392;-89
2023/01/12 02:08:21;;;;;;;26.58;3.67;;;8.10;99.00;;;;;;5088299;28;20397;-89
2023/01/12 02:10:47;;;;;;;20.23;3.40;;;8.10;99.00;;;;;;5088998;28;20414;-89
2023/01/12 02:16:22;;;;;;;27.23;3.95;;;8.20;99.20;;;;;;5105098;28;20405;-90
2023/01/12 02:18:55;;;;;;;30.48;4.60;;;8.20;99.10;;;;;;5105719;28;20442;-90
2023/01/12 02:21:39;;;;;;;31.58;4.65;;;8.20;99.20;;;;;;5087524;28;20798;-90
2023/01/12 02:24:32;;;;;;;36.30;4.88;;;8.30;99.20;;;;;;5088731;28;20410;-89
2023/01/12 02:27:12;;;;;;;32.33;4.50;;;8.30;99.10;;;;;;5088221;28;20404;-90
2023/01/12 02:29:47;;;;;;;29.50;4.30;;;8.30;99.10;;;;;;5086426;28;20509;-90
2023/01/12 02:32:30;;;;;;;30.30;4.47;;;8.30;99.10;;;;;;5105744;28;20411;-92
2023/01/12 02:35:04;;;;;;;29.85;4.50;;;8.30;99.20;;;;;;5087711;28;20408;-90
2023/01/12 02:37:43;;;;;;;25.65;3.80;;;8.30;99.20;;;;;;5105125;28;20404;-92
2023/01/12 02:40:51;;;;;;;29.33;4.37;;;8.30;99.20;;;;;;5105049;28;20475;-90
2023/01/12 02:43:20;;;;;;;32.25;4.68;;;8.40;99.20;;;;;;5084316;28;20411;-91
2023/01/12 02:45:54;;;;;;;31.85;4.65;;;8.40;99.30;;;;;;5088197;28;20767;-89
2023/01/12 02:48:38;;;;;;;35.00;5.70;;;8.40;99.40;;;;;;5087217;28;20460;-89
2023/01/12 02:51:22;;;;;;;39.00;5.45;;;8.40;99.40;;;;;;5086844;28;20404;-91
2023/01/12 02:53:54;;;;;;;35.97;5.72;;;8.40;99.50;;;;;;5088006;28;20424;-91
2023/01/12 02:56:38;;;;;;;32.65;4.90;;;8.50;99.50;;;;;;5086648;28;20417;-90
2023/01/12 02:59:10;;;;;;;35.38;5.45;;;8.50;99.50;;;;;;5087254;28;20397;-89
2023/01/12 03:01:36;;;;;;;30.63;5.22;;;8.50;99.50;;;;;;5104609;28;20408;-90
2023/01/12 03:04:06;;;;;;;35.88;5.10;;;8.50;99.50;;;;;;5086766;28;20930;-90
2023/01/12 03:06:44;;;;;;;32.20;5.45;;;8.50;99.50;;;;;;5104238;28;20400;-90
2023/01/12 03:09:12;;;;;;;34.33;5.70;;;8.60;99.50;;;;;;5086511;28;20401;-91
2023/01/12 03:11:41;;;;;;;43.15;6.13;;;8.60;99.50;;;;;;5087557;28;20400;-89
2023/01/12 03:14:09;;;;;;;38.10;5.35;;;8.80;99.50;;;;;;5086649;28;20488;-89
2023/01/12 03:16:39;;;;;;;43.22;6.45;;;8.70;99.50;;;;;;5086640;28;20489;-91
2023/01/12 03:19:09;;;;;;;37.95;5.65;;;8.60;99.50;;;;;;5087471;28;20426;-90
2023/01/12 03:21:41;;;;;;;35.85;5.70;;;8.70;99.50;;;;;;5086414;28;20409;-89
2023/01/12 03:24:20;;;;;;;40.47;6.60;;;8.70;99.60;;;;;;5087467;28;20450;-89
2023/01/12 03:26:50;;;;;;;36.22;6.05;;;8.70;99.60;;;;;;5103545;28;20416;-89
2023/01/12 03:29:28;;;;;;;40.25;6.20;;;8.70;99.70;;;;;;5087352;28;20500;-89
2023/01/12 03:31:55;;;;;;;33.28;4.43;;;8.80;99.70;;;;;;5086965;28;20416;-91
2023/01/12 03:34:21;;;;;;;36.35;6.05;;;8.80;99.70;;;;;;5086214;28;20420;-91
2023/01/12 03:37:04;;;;;;;37.37;6.03;;;8.80;99.80;;;;;;5087662;28;20535;-91
2023/01/12 03:39:45;;;;;;;32.38;5.55;;;8.80;99.80;;;;;;5086619;28;20431;-93
2023/01/12 03:42:20;;;;;;;36.13;5.65;;;8.80;99.80;;;;;;5086838;28;20953;-91
2023/01/12 03:45:12;;;;;;;38.13;6.20;;;8.80;99.70;;;;;;5087093;28;20492;-90
2023/01/12 03:47:40;;;;;;;35.78;5.60;;;9.10;99.80;;;;;;5103166;28;20973;-92
2023/01/12 03:50:10;;;;;;;33.50;5.35;;;8.90;99.70;;;;;;5104269;28;20397;-90
2023/01/12 03:52:39;;;;;;;37.78;5.28;;;8.90;99.60;;;;;;5086563;28;20424;-91
2023/01/12 03:55:08;;;;;;;38.45;5.25;;;8.80;99.50;;;;;;5087639;28;20407;-90
2023/01/12 03:57:35;;;;;;;32.00;5.18;;;8.80;99.50;;;;;;5086396;28;20520;-91
2023/01/12 04:00:04;;;;;;;36.87;5.23;;;8.80;99.70;;;;;;5087100;28;20404;-92
2023/01/12 04:02:30;;;;;;;34.67;5.50;;;8.80;99.80;;;;;;5087382;28;20730;-91
2023/01/12 04:04:55;;;;;;;37.58;5.88;;;8.80;99.80;;;;;;5086400;28;20498;-91
2023/01/12 04:07:22;;;;;;;31.10;4.73;;;9.00;99.80;;;;;;5087431;28;20928;-90
2023/01/12 04:09:48;;;;;;;41.83;5.30;;;8.80;99.80;;;;;;5086584;28;20728;-93
2023/01/12 04:12:13;;;;;;;35.97;5.20;;;8.80;99.80;;;;;;5087080;28;20403;-94
2023/01/12 04:14:44;;;;;;;33.80;5.00;;;8.90;99.70;;;;;;5085956;28;20428;-93
2023/01/12 04:17:12;;;;;;;36.00;4.90;;;9.10;99.80;;;;;;5087258;28;20763;-93
2023/01/12 04:19:38;;;;;;;32.92;4.57;;;8.80;99.70;;;;;;5087350;28;20697;-93
2023/01/12 04:24:55;;;;;;;27.98;3.70;;;8.90;99.70;;;;;;5096284;28;20407;-92
2023/01/12 04:27:21;;;;;;;24.83;3.50;;;8.80;99.80;;;;;;5086319;28;20597;-93
2023/01/12 04:29:47;;;;;;;22.13;3.30;;;8.70;99.70;;;;;;5087659;28;20752;-91
2023/01/12 04:32:12;;;;;;;26.55;4.07;;;8.90;99.70;;;;;;5086494;28;20569;-92
2023/01/12 04:34:38;;;;;;;19.25;2.47;;;8.60;99.60;;;;;;5086472;28;20408;-92
2023/01/12 04:37:04;;;;;;;19.67;2.58;;;8.60;99.60;;;;;;5086770;28;20405;-91
2023/01/12 04:39:29;;;;;;;19.80;2.43;;;8.50;99.60;;;;;;5086342;28;20483;-92
2023/01/12 04:41:55;;;;;;;19.73;2.60;;;8.50;99.60;;;;;;5087047;28;20563;-92
2023/01/12 04:44:21;;;;;;;16.80;2.13;;;8.60;99.70;;;;;;5085220;28;20971;-89
2023/01/12 04:46:50;;;;;;;21.20;2.33;;;8.40;99.70;;;;;;5087136;28;20396;-93
2023/01/12 04:49:16;;;;;;;18.05;2.50;;;8.40;99.70;;;;;;5086086;28;20870;-92
2023/01/12 04:51:42;;;;;;;20.40;2.80;;;8.30;99.70;;;;;;5103591;28;20404;-93
2023/01/12 04:54:09;;;;;;;19.83;2.60;;;8.40;99.80;;;;;;5089333;28;20771;-92
2023/01/12 04:56:35;;;;;;;19.25;2.60;;;8.60;99.90;;;;;;5089572;28;20456;-91
2023/01/12 04:59:01;;;;;;;13.35;1.95;;;8.50;99.90;;;;;;5107180;28;20416;-90
2023/01/12 05:01:28;;;;;;;19.45;2.28;;;8.80;99.90;;;;;;5089495;28;20433;-95
2023/01/12 05:03:56;;;;;;;15.03;1.97;;;8.40;99.90;;;;;;5090503;28;20457;-91
2023/01/12 05:06:23;;;;;;;16.55;2.00;;;8.40;99.90;;;;;;5106613;28;20783;-92
2023/01/12 05:11:33;;;;;;;15.83;2.20;;;8.40;99.90;;;;;;5107074;28;20489;-91
2023/01/12 05:13:59;;;;;;;13.07;1.90;;;8.40;99.90;;;;;;5089331;28;20420;-93
2023/01/12 05:16:26;;;;;;;10.77;1.38;;;8.40;99.90;;;;;;5090878;28;20396;-92
2023/01/12 05:18:52;;;;;;;9.80;1.90;;;8.40;99.90;;;;;;5106167;28;20407;-90
2023/01/12 05:21:18;;;;;;;9.52;1.80;;;8.40;99.90;;;;;;5106854;28;20459;-92
2023/01/12 05:23:44;;;;;;;10.38;1.70;;;8.40;99.90;;;;;;5106162;28;20604;-90
2023/01/12 05:26:11;;;;;;;7.90;1.55;;;8.60;99.90;;;;;;5089861;28;20640;-91
2023/01/12 05:28:36;;;;;;;10.70;2.25;;;8.40;99.90;;;;;;5089428;28;20400;-91
2023/01/12 05:31:11;;;;;;;8.27;1.73;;;8.40;99.90;;;;;;5106521;28;20419;-91
2023/01/12 05:33:38;;;;;;;7.47;1.95;;;8.40;99.90;;;;;;5089634;28;20503;-91
2023/01/12 05:36:05;;;;;;;7.10;1.75;;;8.60;99.90;;;;;;5105662;28;20419;-92
2023/01/12 05:38:31;;;;;;;7.13;1.50;;;8.40;99.90;;;;;;5089880;28;20392;-91
2023/01/12 05:41:02;;;;;;;7.25;1.90;;;8.40;99.90;;;;;;5106218;28;20496;-91
2023/01/12 05:46:13;;;;;;;5.70;1.92;;;8.50;99.90;;;;;;5106295;28;20404;-91
2023/01/12 05:48:39;;;;;;;7.05;2.10;;;8.60;99.90;;;;;;5089014;28;20427;-89
2023/01/12 05:51:06;;;;;;;8.05;2.33;;;8.50;99.90;;;;;;5089566;28;20388;-92
2023/01/12 05:53:32;;;;;;;7.82;2.58;;;8.50;99.90;;;;;;5088548;28;20416;-93
2023/01/12 05:55:58;;;;;;;4.63;1.67;;;8.50;99.90;;;;;;5089649;28;20405;-91
2023/01/12 05:58:24;;;;;;;5.10;1.80;;;8.60;99.90;;;;;;5088284;28;20393;-91
2023/01/12 06:00:50;;;;;;;6.47;2.20;;;8.50;99.90;;;;;;5089983;28;20893;-90
2023/01/12 06:03:16;;;;;;;6.00;1.60;;;8.50;99.90;;;;;;5088517;28;20495;-92
2023/01/12 06:05:41;;;;;;;3.72;0.82;;;8.50;99.90;;;;;;5088826;28;21070;-92
2023/01/12 06:08:07;;;;;;;3.40;1.10;;;8.80;99.90;;;;;;5089538;28;20503;-89
2023/01/12 06:10:35;;;;;;;4.07;1.58;;;8.60;99.90;;;;;;5105143;28;20461;-91
2023/01/12 06:15:44;;;;;;;4.00;1.80;;;8.60;99.90;;;;;;5105064;28;20422;-89
2023/01/12 06:18:10;;;;;;;3.43;1.40;;;8.70;99.90;;;;;;5088657;28;20396;-92
2023/01/12 06:20:36;;;;;;;3.40;1.30;;;8.70;99.90;;;;;;5088538;28;20408;-91
2023/01/12 06:23:03;;;;;;;4.40;1.60;;;8.90;99.90;;;;;;5088459;28;20503;-89
2023/01/12 06:25:30;;;;;;;3.55;1.50;;;8.80;99.90;;;;;;5088846;28;20392;-91
2023/01/12 06:27:56;;;;;;;4.45;1.40;;;8.80;99.90;;;;;;5087936;28;20438;-91
2023/01/12 06:30:22;;;;;;;5.28;1.33;;;8.90;99.90;;;;;;5088856;28;20483;-91
2023/01/12 06:32:48;;;;;;;4.55;1.65;;;8.90;99.90;;;;;;5087484;28;20425;-92
2023/01/12 06:35:14;;;;;;;4.50;2.03;;;9.00;99.90;;;;;;5088857;28;20453;-91
2023/01/12 06:37:40;;;;;;;8.63;3.10;;;9.20;99.90;;;;;;5087970;28;20887;-92
2023/01/12 06:40:06;;;;;;;10.32;3.22;;;9.10;99.90;;;;;;5105450;28;20396;-93
2023/01/12 06:42:32;;;;;;;9.98;4.63;;;9.10;99.90;;;;;;5105571;28;20446;-90
2023/01/12 06:45:00;;;;;;;15.17;5.40;;;9.10;99.90;;;;;;5086729;28;20817;-90
2023/01/12 06:47:27;;;;;;;18.77;6.10;;;9.20;99.90;;;;;;5088662;28;20925;-91
2023/01/12 06:49:53;;;;;;;22.10;4.82;;;9.10;99.90;;;;;;5087183;28;20404;-90
2023/01/12 06:52:24;;;;;;;28.15;5.80;;;9.30;99.90;;;;;;5088343;28;20408;-92
2023/01/12 06:54:50;;;;;;;28.25;4.05;;;9.30;99.90;;;;;;5087642;28;20417;-91
2023/01/12 06:57:16;;;;;;;30.83;5.10;;;9.80;99.90;;;;;;5105413;28;20415;-91
2023/01/12 06:59:42;;;;;;;37.00;5.47;;;9.50;99.90;;;;;;5087783;28;20886;-90
2023/01/12 07:02:12;;;;;;;30.70;4.95;;;9.60;99.90;;;;;;5104357;28;20404;-92
2023/01/12 07:04:40;;;;;;;30.73;4.82;;;9.70;99.90;;;;;;5105362;28;20401;-89
2023/01/12 07:07:09;;;;;;;33.70;4.97;;;9.80;99.90;;;;;;5104107;28;20416;-91
2023/01/12 07:09:35;;;;;;;33.70;4.85;;;9.80;99.90;;;;;;5088355;28;20404;-90
2023/01/12 07:12:02;;;;;;;30.95;4.28;;;9.90;99.90;;;;;;5103667;28;20499;-91
2023/01/12 07:14:28;;;;;;;30.63;3.95;;;9.90;99.90;;;;;;5087792;28;20423;-91
2023/01/12 07:16:53;;;;;;;31.73;5.00;;;10.00;99.90;;;;;;5086959;28;20400;-89
2023/01/12 07:19:19;;;;;;;29.40;4.95;;;10.30;99.90;;;;;;5103956;28;20748;-90
2023/01/12 07:21:46;;;;;;;34.25;4.40;;;10.00;99.90;;;;;;5087731;28;20497;-91
2023/01/12 07:24:12;;;;;;;32.38;4.38;;;10.00;99.90;;;;;;5087133;28;20835;-91
2023/01/12 07:26:37;;;;;;;35.67;4.87;;;10.10;99.90;;;;;;5104637;28;20431;-89
2023/01/12 07:29:03;;;;;;;39.07;5.13;;;10.00;99.90;;;;;;5103582;28;20968;-91
2023/01/12 07:31:29;;;;;;;33.28;5.25;;;10.10;99.90;;;;;;5087483;28;20404;-92
2023/01/12 07:33:55;;;;;;;32.45;4.85;;;10.10;99.90;;;;;;5086579;28;20442;-91
2023/01/12 07:36:21;;;;;;;33.80;4.57;;;10.10;99.90;;;;;;5087577;28;20392;-91
2023/01/12 07:38:47;;;;;;;36.47;4.68;;;10.10;99.90;;;;;;5087220;28;20436;-91
2023/01/12 07:43:57;;;;;;;37.47;5.13;;;10.30;99.90;;;;;;5104895;28;20500;-91
2023/01/12 07:46:23;;;;;;;32.15;4.95;;;10.20;99.90;;;;;;5089751;28;20561;-91
2023/01/12 07:48:49;;;;;;;31.63;4.32;;;10.30;99.90;;;;;;5090630;28;20928;-92
2023/01/12 07:51:14;;;;;;;25.57;3.90;;;10.20;99.90;;;;;;5090484;28;20390;-92
2023/01/12 07:53:40;;;;;;;31.70;4.53;;;10.30;99.90;;;;;;5090287;28;20418;-89
2023/01/12 07:56:08;;;;;;;36.10;4.38;;;10.30;99.90;;;;;;5090671;28;20425;-92
2023/01/12 07:58:34;;;;;;;27.98;3.67;;;10.30;99.90;;;;;;5089808;28;20382;-90
2023/01/12 08:01:00;;;;;;;23.40;3.60;;;10.30;99.90;;;;;;5090974;28;20461;-89
2023/01/12 08:03:26;;;;;;;28.13;3.90;;;10.30;99.90;;;;;;5089883;28;20776;-89
2023/01/12 08:05:53;;;;;;;29.40;4.00;;;10.30;99.90;;;;;;5090914;28;20455;-91
2023/01/12 08:08:18;;;;;;;27.90;3.55;;;10.30;99.90;;;;;;5089970;28;20402;-92
2023/01/12 08:10:47;;;;;;;26.52;3.75;;;10.40;99.90;;;;;;5090363;28;20796;-92
2023/01/12 08:13:13;;;;;;;29.15;3.53;;;10.40;99.90;;;;;;5089829;28;20928;-90
2023/01/12 08:15:43;;;;;;;24.25;3.90;;;10.40;99.90;;;;;;5089869;28;20390;-91
2023/01/12 08:18:21;;;;;;;24.77;3.38;;;10.40;99.90;;;;;;5090410;28;20433;-92
2023/01/12 08:20:48;;;;;;;24.27;3.83;;;10.40;99.90;;;;;;5090018;28;20398;-91
2023/01/12 08:23:26;;;;;;;26.67;3.60;;;10.40;99.90;;;;;;5107604;28;20502;-89
2023/01/12 08:25:58;;;;;;;31.63;3.75;;;10.50;99.90;;;;;;5089990;28;20403;-91
2023/01/12 08:28:37;;;;;;;28.35;3.63;;;10.50;99.90;;;;;;5091935;27;20402;-90
2023/01/12 08:31:03;;;;;;;23.63;2.83;;;10.50;99.90;;;;;;5094729;27;20413;-90
2023/01/12 08:33:29;;;;;;;24.50;3.40;;;10.50;99.80;;;;;;5093190;27;20429;-90
2023/01/12 08:35:55;;;;;;;23.03;2.93;;;10.50;99.80;;;;;;5094645;27;20853;-90
2023/01/12 08:38:20;;;;;;;23.98;2.92;;;10.50;99.80;;;;;;5110684;27;20437;-92
2023/01/12 08:46:14;;;;;;;24.52;3.03;;;10.60;99.80;;;;;;5109978;27;20399;-90
2023/01/12 08:48:40;;;;;;;20.98;2.67;;;10.60;99.80;;;;;;5094079;27;20911;-91
2023/01/12 08:51:07;;;;;;;23.87;2.90;;;10.60;99.80;;;;;;5093636;27;20482;-91
2023/01/12 08:53:33;;;;;;;26.58;3.80;;;10.60;99.80;;;;;;5093929;27;20414;-91
2023/01/12 08:55:59;;;;;;;23.47;2.40;;;10.60;99.80;;;;;;5092718;27;20390;-89
2023/01/12 08:58:25;;;;;;;26.60;3.50;;;10.60;99.80;;;;;;5093702;27;20417;-91
2023/01/12 09:00:50;;;;;;;27.17;3.65;;;10.60;99.90;;;;;;5093149;27;20390;-92
2023/01/12 09:03:16;;;;;;;26.38;3.28;;;10.50;99.90;;;;;;5093365;27;20399;-91
2023/01/12 09:05:43;;;;;;;23.63;3.37;;;10.60;99.90;;;;;;5093804;27;20920;-90
2023/01/12 09:08:08;;;;;;;25.35;3.08;;;10.50;99.80;;;;;;5092708;27;20390;-91
2023/01/12 09:10:34;;;;;;;28.10;3.38;;;10.60;99.90;;;;;;5093631;27;20398;-92
2023/01/12 09:12:59;;;;;;;24.63;3.10;;;10.60;99.90;;;;;;5092385;27;20421;-92
2023/01/12 09:15:25;;;;;;;24.65;3.38;;;10.70;99.90;;;;;;5093529;27;20395;-90
2023/01/12 09:17:52;;;;;;;18.83;2.23;;;10.90;99.90;;;;;;5092724;27;20756;-91
2023/01/12 09:20:17;;;;;;;24.83;2.90;;;10.70;99.80;;;;;;5110345;27;20901;-89
2023/01/12 09:22:43;;;;;;;25.27;3.13;;;10.70;99.80;;;;;;5092933;27;20400;-91
2023/01/12 09:25:09;;;;;;;23.53;3.07;;;10.70;99.80;;;;;;5092487;27;20471;-91
2023/01/12 09:27:34;;;;;;;19.30;2.40;;;10.70;99.80;;;;;;5093726;27;20470;-91
2023/01/12 09:30:00;;;;;;;17.93;2.40;;;10.70;99.90;;;;;;5092527;27;20485;-91
2023/01/12 09:32:25;;;;;;;18.97;2.27;;;10.70;99.70;;;;;;5093109;27;20916;-95
2023/01/12 09:34:53;;;;;;;20.95;2.80;;;10.90;99.70;;;;;;5091957;27;20426;-90
2023/01/12 09:37:19;;;;;;;25.05;2.83;;;10.80;99.60;;;;;;5110181;27;20407;-91
2023/01/12 09:39:44;;;;;;;19.75;2.60;;;10.80;99.40;;;;;;5109105;27;20398;-92
2023/01/12 09:48:11;;;;;;;24.30;2.50;;;10.80;99.20;;;;;;5109048;27;20403;-92
2023/01/12 09:50:46;;;;;;;20.75;2.83;;;10.90;99.30;;;;;;5093149;27;20383;-94
2023/01/12 09:53:19;;;;;;;23.00;2.63;;;10.90;99.40;;;;;;5093085;27;20467;-91
2023/01/12 09:56:02;;;;;;;20.55;2.65;;;11.00;99.60;;;;;;5092028;27;20445;-92
2023/01/12 09:59:09;;;;;;;21.38;2.42;;;11.10;99.50;;;;;;5093137;27;20428;-93
2023/01/12 10:01:36;;;;;;;21.77;2.67;;;10.90;99.50;;;;;;5092996;27;20456;-92
2023/01/12 10:04:03;;;;;;;21.55;2.65;;;11.10;99.50;;;;;;5091891;27;20471;-91
2023/01/12 10:06:30;;;;;;;20.50;2.67;;;10.90;99.40;;;;;;5092809;27;20398;-91
2023/01/12 10:08:57;;;;;;;22.15;2.92;;;10.90;99.30;;;;;;5091327;27;20401;-91
2023/01/12 10:12:02;;;;;;;25.73;3.08;;;10.90;99.40;;;;;;5092224;27;20407;-92
2023/01/12 10:14:42;;;;;;;17.88;2.15;;;10.90;99.50;;;;;;5092018;27;20419;-91
2023/01/12 10:17:46;;;;;;;20.92;2.05;;;10.90;99.60;;;;;;5091446;27;20490;-90
2023/01/12 10:20:18;;;;;;;18.60;2.10;;;11.00;99.50;;;;;;5071274;27;20746;-91
2023/01/12 10:22:53;;;;;;;19.42;2.42;;;11.00;99.40;;;;;;5091998;27;20920;-91
2023/01/12 10:25:39;;;;;;;17.90;2.33;;;11.00;99.30;;;;;;5092210;27;20750;-92
2023/01/12 10:28:28;;;;;;;20.13;2.25;;;11.00;99.30;;;;;;5109061;27;20402;-92
2023/01/12 10:30:55;;;;;;;13.57;1.92;;;10.90;99.30;;;;;;5107832;27;20452;-92
2023/01/12 10:33:27;;;;;;;17.33;2.40;;;11.30;99.40;;;;;;5092144;27;20436;-91
2023/01/12 10:36:07;;;;;;;22.55;3.17;;;11.00;99.30;;;;;;5091428;27;20434;-92
2023/01/12 10:38:37;;;;;;;19.83;2.60;;;11.00;99.30;;;;;;5091263;27;20904;-91
2023/01/12 10:41:05;;;;;;;19.10;2.83;;;11.00;99.40;;;;;;5091518;27;20399;-93
2023/01/12 10:43:32;;;;;;;20.95;2.72;;;11.00;99.30;;;;;;5090993;27;20399;-91
2023/01/12 10:46:08;;;;;;;19.50;2.30;;;10.80;99.20;;;;;;5091958;27;20738;-92
2023/01/12 10:48:34;;;;;;;23.48;2.40;;;11.20;99.30;;;;;;5090850;27;20494;-91
2023/01/12 10:51:02;;;;;;;17.77;2.28;;;11.40;99.30;;;;;;5091148;27;20771;-91
2023/01/12 10:53:43;;;;;;;20.23;2.50;;;11.10;99.30;;;;;;5091323;27;20410;-92
2023/01/12 10:56:23;;;;;;;21.58;2.80;;;11.10;99.30;;;;;;5090804;27;20766;-90
2023/01/12 10:58:52;;;;;;;19.33;2.20;;;11.20;99.20;;;;;;5092105;27;20402;-91
2023/01/12 11:01:19;;;;;;;20.63;2.10;;;11.20;99.00;;;;;;5090642;27;20399;-91
2023/01/12 11:03:45;;;;;;;17.73;2.50;;;11.40;99.00;;;;;;5108456;27;20407;-90
2023/01/12 11:06:27;;;;;;;19.33;2.08;;;11.50;98.90;;;;;;5090706;27;20437;-90
2023/01/12 11:08:54;;;;;;;18.42;2.53;;;11.20;98.80;;;;;;5091398;27;20940;-91
2023/01/12 11:11:29;;;;;;;20.77;2.10;;;11.30;98.90;;;;;;5091372;27;20398;-92
2023/01/12 11:14:01;;;;;;;18.75;2.20;;;11.40;98.80;;;;;;5089849;27;20509;-92
2023/01/12 11:16:33;;;;;;;14.18;1.88;;;11.40;98.60;;;;;;5091540;27;20896;-91
2023/01/12 11:19:04;;;;;;;15.73;1.63;;;11.50;98.40;;;;;;5090557;27;20407;-90
2023/01/12 11:21:38;;;;;;;18.13;2.17;;;11.60;98.30;;;;;;5091063;27;20399;-91
2023/01/12 11:24:11;;;;;;;17.38;2.33;;;11.60;98.10;;;;;;5091387;27;20401;-91
2023/01/12 11:26:49;;;;;;;20.25;2.13;;;11.70;98.00;;;;;;5090410;27;20406;-91
2023/01/12 11:29:42;;;;;;;18.37;2.07;;;11.70;97.80;;;;;;5090889;27;20435;-92
2023/01/12 11:32:18;;;;;;;14.77;2.15;;;11.70;97.50;;;;;;5090002;27;20403;-91
2023/01/12 11:34:55;;;;;;;16.02;2.22;;;11.80;97.70;;;;;;5089851;27;20544;-92
2023/01/12 11:37:22;;;;;;;18.40;2.25;;;11.80;97.50;;;;;;5107906;27;20399;-91
2023/01/12 11:39:52;;;;;;;15.18;1.92;;;11.90;97.80;;;;;;5090203;28;20403;-89
2023/01/12 11:45:13;;;;;;;16.27;1.70;;;12.00;97.30;;;;;;5106765;27;20407;-90
2023/01/12 11:47:48;;;;;;;11.20;1.55;;;12.20;97.30;;;;;;5090529;28;20502;-91
2023/01/12 11:50:23;;;;;;;14.53;1.40;;;12.30;97.00;;;;;;5090917;28;20401;-91
2023/01/12 11:52:50;;;;;;;14.85;1.85;;;12.20;96.70;;;;;;5090003;28;20391;-91
2023/01/12 11:55:29;;;;;;;13.13;1.27;;;12.20;96.50;;;;;;5108119;28;20479;-92
2023/01/12 11:58:14;;;;;;;12.02;1.63;;;12.20;96.50;;;;;;5106717;28;20398;-90
2023/01/12 12:00:47;;;;;;;14.50;1.63;;;12.10;96.50;;;;;;5090092;28;20414;-89
2023/01/12 12:03:30;;;;;;;14.60;1.53;;;12.00;96.60;;;;;;5094472;27;20401;-90
2023/01/12 12:06:09;;;;;;;14.20;1.50;;;12.10;96.80;;;;;;5093656;27;20395;-90
2023/01/12 12:08:51;;;;;;;14.00;1.85;;;12.10;96.60;;;;;;5094922;27;20395;-90
2023/01/12 12:11:43;;;;;;;15.53;2.10;;;12.00;96.80;;;;;;5111546;27;20410;-90
2023/01/12 12:14:30;;;;;;;14.82;1.58;;;12.10;96.70;;;;;;5093968;27;20506;-90
2023/01/12 12:17:04;;;;;;;16.88;2.15;;;12.10;96.80;;;;;;5094690;27;20819;-92
2023/01/12 12:19:55;;;;;;;14.20;1.85;;;12.00;96.90;;;;;;5110757;27;20421;-91
2023/01/12 12:22:30;;;;;;;17.25;2.22;;;11.90;97.00;;;;;;5110726;27;20442;-91
2023/01/12 12:25:10;;;;;;;20.30;2.47;;;11.90;97.60;;;;;;5094619;27;20415;-91
2023/01/12 12:27:44;;;;;;;17.63;2.67;;;11.90;97.50;;;;;;5110827;27;20910;-90
2023/01/12 12:30:38;;;;;;;15.93;2.42;;;11.90;97.60;;;;;;5111632;27;20406;-91
2023/01/12 12:33:25;;;;;;;19.88;2.63;;;11.90;97.50;;;;;;5094159;27;20414;-91
2023/01/12 12:36:26;;;;;;;21.63;2.53;;;11.80;97.60;;;;;;5093273;27;20406;-92
2023/01/12 12:39:14;;;;;;;18.00;2.67;;;11.80;97.50;;;;;;5094537;27;20908;-89
2023/01/12 12:45:17;;;;;;;17.35;2.10;;;11.80;97.50;;;;;;5109697;27;20434;-90
2023/01/12 12:48:01;;;;;;;17.23;2.10;;;11.80;97.40;;;;;;5094285;27;20433;-90
2023/01/12 12:50:33;;;;;;;16.92;2.28;;;11.80;97.20;;;;;;5093678;27;20497;-90
2023/01/12 12:53:04;;;;;;;17.88;2.20;;;11.90;97.20;;;;;;5110069;27;20521;-91
2023/01/12 12:55:30;;;;;;;17.80;2.50;;;11.80;97.20;;;;;;5094037;27;20449;-89
2023/01/12 12:57:58;;;;;;;19.90;2.63;;;11.90;97.10;;;;;;5093617;27;20888;-90
2023/01/12 13:00:45;;;;;;;17.55;2.50;;;11.90;97.10;;;;;;5094310;27;20753;-89
2023/01/12 13:03:40;;;;;;;17.70;1.77;;;11.90;97.20;;;;;;5092739;27;20446;-91
2023/01/12 13:06:13;;;;;;;18.23;2.28;;;11.80;96.90;;;;;;5092555;27;20406;-90
2023/01/12 13:08:39;;;;;;;21.38;2.78;;;11.90;97.00;;;;;;5110700;27;20402;-90
2023/01/12 13:11:05;;;;;;;19.83;2.50;;;12.10;97.30;;;;;;5109800;27;20421;-90
2023/01/12 13:13:35;;;;;;;18.02;2.83;;;12.00;97.00;;;;;;5092674;27;20839;-91
2023/01/12 13:16:19;;;;;;;20.50;2.67;;;11.90;96.70;;;;;;5093101;27;20437;-88
2023/01/12 13:18:47;;;;;;;16.95;2.60;;;12.10;96.80;;;;;;5093031;27;20497;-88
2023/01/12 13:21:25;;;;;;;17.15;2.38;;;12.10;96.70;;;;;;5093350;27;20414;-90
2023/01/12 13:23:52;;;;;;;19.48;2.67;;;11.90;96.60;;;;;;5092142;27;20486;-91
2023/01/12 13:26:33;;;;;;;21.70;2.72;;;11.90;96.80;;;;;;5093045;27;20391;-90
2023/01/12 13:29:27;;;;;;;19.50;2.80;;;12.10;96.90;;;;;;5092366;27;20414;-89
2023/01/12 13:32:21;;;;;;;19.77;2.30;;;11.90;96.90;;;;;;5092562;27;20493;-91
2023/01/12 13:34:48;;;;;;;18.80;2.43;;;11.90;96.80;;;;;;5092734;27;20448;-90
2023/01/12 13:37:53;;;;;;;21.07;2.97;;;11.90;96.90;;;;;;5092002;27;20442;-88
2023/01/12 13:40:27;;;;;;;19.42;2.40;;;11.90;97.20;;;;;;4991170;28;20914;-89
2023/01/12 13:43:14;;;;;;;17.20;2.10;;;11.90;96.60;;;;;;5082141;27;20679;-91